Time;durP1;ratioP1;P1;durP2;ratioP2;P2;SDS_P1;SDS_P2;PMS_P1;PMS_P2;Temp;Humidity;BMP_temperature;BMP_pressure;BME280_temperature;BME280_humidity;BME280_pressure;Samples;Min_cycle;Max_cycle;Signal;HPM_P1;HPM_P2
2022/04/28 00:35:50;;;;;;;;;7.50;3.50;;;;;;;;1656098;26;139260801;-43
2022/04/28 00:42:41;;;;;;;;;4.00;4.00;;;;;;;;3;117050718;157570955;-44
2022/04/28 00:54:39;;;;;;;;;;;;;;;;;;2;157569132;157569132;-42
2022/04/28 01:01:32;;;;;;;;;2.50;2.50;;;;;;;;3;130571715;139560912;-44
2022/04/28 01:06:25;;;;;;;;;;;;;;;;;;2;157568898;157568898;-44
2022/04/28 01:13:13;;;;;;;;;15.00;3.00;;;;;;;;3;130570893;139561762;-43
2022/04/28 01:18:06;;;;;;;;;;;;;;;;;;2;157566089;157566089;-44
2022/04/28 01:24:53;;;;;;;;;2.50;2.50;;;;;;;;3;130572278;139562139;-44
2022/04/28 01:29:47;;;;;;;;;;;;;;;;;;2;157567943;157567943;-43
2022/04/28 01:36:33;;;;;;;;;4.00;4.00;;;;;;;;3;130571951;139563667;-43
2022/04/28 01:41:27;;;;;;;;;;;;;;;;;;2;157568883;157568883;-43
2022/04/28 01:48:14;;;;;;;;;3.50;3.50;;;;;;;;3;130573309;139559885;-44
2022/04/28 02:07:27;;;;;;;;;11.50;9.75;;;;;;;;5074305;28;14155;-45
2022/04/28 02:10:12;;;;;;;;;11.50;8.00;;;;;;;;6242255;23;8744;-44
2022/04/28 02:12:56;;;;;;;;;17.75;8.00;;;;;;;;6243166;23;8737;-45
2022/04/28 02:15:42;;;;;;;;;14.00;8.00;;;;;;;;6243024;23;8768;-44
2022/04/28 02:18:26;;;;;;;;;10.00;8.75;;;;;;;;6243206;23;8737;-44
2022/04/28 02:21:11;;;;;;;;;5.75;4.75;;;;;;;;6243113;23;8733;-44
2022/04/28 02:23:55;;;;;;;;;15.25;10.50;;;;;;;;6242528;23;8783;-46
2022/04/28 02:26:41;;;;;;;;;9.25;7.00;;;;;;;;6243022;23;8745;-45
2022/04/28 02:29:25;;;;;;;;;9.00;5.00;;;;;;;;6242626;23;8744;-44
2022/04/28 02:32:11;;;;;;;;;4.25;1.50;;;;;;;;6242351;23;8732;-43
2022/04/28 02:34:55;;;;;;;;;11.75;4.75;;;;;;;;6242824;23;8823;-45
2022/04/28 02:37:40;;;;;;;;;8.25;2.50;;;;;;;;6242961;23;8729;-44
2022/04/28 02:40:25;;;;;;;;;9.75;5.00;;;;;;;;6242373;23;8831;-44
2022/04/28 02:43:09;;;;;;;;;7.25;4.25;;;;;;;;6242138;23;8725;-45
2022/04/28 02:45:58;;;;;;;;;9.75;5.75;;;;;;;;6242828;23;8744;-43
2022/04/28 02:48:45;;;;;;;;;7.00;6.25;;;;;;;;6242227;23;8732;-43
2022/04/28 02:51:30;;;;;;;;;4.00;1.50;;;;;;;;6242627;23;8741;-44
2022/04/28 02:54:16;;;;;;;;;9.00;5.75;;;;;;;;6242597;23;8784;-45
2022/04/28 02:57:01;;;;;;;;;13.00;4.75;;;;;;;;6243063;23;8749;-44
2022/04/28 02:59:46;;;;;;;;;4.00;4.00;;;;;;;;6243055;23;8729;-45
2022/04/28 03:02:32;;;;;;;;;7.25;5.25;;;;;;;;6242965;23;8789;-45
2022/04/28 03:05:18;;;;;;;;;8.00;5.50;;;;;;;;6242104;23;8777;-45
2022/04/28 03:11:14;;;;;;;;;8.25;5.50;;;;;;;;6235037;23;8725;-45
2022/04/28 03:13:58;;;;;;;;;8.75;5.75;;;;;;;;6235751;23;9492;-45
2022/04/28 03:16:43;;;;;;;;;8.00;5.75;;;;;;;;6235141;23;8741;-44
2022/04/28 03:19:27;;;;;;;;;11.75;5.00;;;;;;;;6235226;23;8729;-44
2022/04/28 03:22:12;;;;;;;;;9.50;5.75;;;;;;;;6234414;23;8740;-45
2022/04/28 03:24:56;;;;;;;;;10.25;5.50;;;;;;;;6235966;23;8733;-44
2022/04/28 03:27:42;;;;;;;;;7.25;2.25;;;;;;;;6211764;23;8737;-45
2022/04/28 03:30:27;;;;;;;;;6.25;4.00;;;;;;;;6234349;23;8717;-44
2022/04/28 03:33:12;;;;;;;;;5.00;4.00;;;;;;;;6234447;23;9477;-45
2022/04/28 03:35:56;;;;;;;;;5.25;3.00;;;;;;;;6212367;23;8769;-45
2022/04/28 03:38:42;;;;;;;;;8.00;4.00;;;;;;;;6235399;23;8733;-45
2022/04/28 03:41:27;;;;;;;;;7.25;3.00;;;;;;;;6235048;23;8725;-44
2022/04/28 03:44:13;;;;;;;;;3.75;3.00;;;;;;;;6235394;23;8705;-45
2022/04/28 03:46:57;;;;;;;;;6.00;5.00;;;;;;;;6233974;23;9512;-45
2022/04/28 03:49:43;;;;;;;;;7.00;4.00;;;;;;;;6235521;23;8851;-45
2022/04/28 03:52:27;;;;;;;;;8.25;6.00;;;;;;;;6235145;23;8709;-45
2022/04/28 03:55:12;;;;;;;;;7.75;6.25;;;;;;;;6234363;23;8741;-44
2022/04/28 03:57:59;;;;;;;;;6.00;6.00;;;;;;;;6234874;23;8907;-46
2022/04/28 04:00:48;;;;;;;;;6.50;6.00;;;;;;;;6233942;23;8765;-46
2022/04/28 04:03:33;;;;;;;;;9.00;5.00;;;;;;;;6234623;23;8744;-45
2022/04/28 04:06:17;;;;;;;;;10.00;5.50;;;;;;;;6234372;22;9537;-44
2022/04/28 04:09:04;;;;;;;;;8.50;6.25;;;;;;;;6235641;23;8721;-46
2022/04/28 04:11:49;;;;;;;;;6.00;6.00;;;;;;;;6234738;23;8733;-45
2022/04/28 04:14:33;;;;;;;;;9.00;6.25;;;;;;;;6235098;23;8733;-45
2022/04/28 04:17:18;;;;;;;;;21.25;19.25;;;;;;;;6235374;23;9535;-45
2022/04/28 04:20:06;;;;;;;;;12.50;8.75;;;;;;;;6234072;23;8741;-45
2022/04/28 04:22:51;;;;;;;;;18.25;14.25;;;;;;;;6234610;23;8725;-44
2022/04/28 04:25:36;;;;;;;;;12.00;10.25;;;;;;;;6212138;23;9520;-44
2022/04/28 04:28:20;;;;;;;;;15.25;13.00;;;;;;;;6212421;23;8757;-45
2022/04/28 04:34:10;;;;;;;;;11.50;10.75;;;;;;;;6234392;23;8863;-45
2022/04/28 04:36:55;;;;;;;;;13.00;9.25;;;;;;;;6233807;23;8768;-44
2022/04/28 04:39:40;;;;;;;;;16.00;10.50;;;;;;;;6234245;23;8725;-44
2022/04/28 04:42:26;;;;;;;;;8.25;5.75;;;;;;;;6234738;23;8729;-45
2022/04/28 04:45:12;;;;;;;;;8.00;6.75;;;;;;;;6234867;23;8741;-45
2022/04/28 04:47:56;;;;;;;;;10.75;7.25;;;;;;;;6234218;23;8737;-47
2022/04/28 04:50:42;;;;;;;;;10.75;8.00;;;;;;;;6234440;23;8732;-44
2022/04/28 04:53:26;;;;;;;;;15.25;11.00;;;;;;;;6234776;23;8747;-44
2022/04/28 04:56:12;;;;;;;;;11.25;9.00;;;;;;;;6234505;23;8796;-46
2022/04/28 04:58:57;;;;;;;;;7.75;7.50;;;;;;;;6234859;23;8733;-46
2022/04/28 05:01:42;;;;;;;;;9.25;5.25;;;;;;;;6233645;23;8858;-45
2022/04/28 05:04:32;;;;;;;;;8.75;8.75;;;;;;;;6234800;23;8725;-44
2022/04/28 05:07:17;;;;;;;;;14.75;11.75;;;;;;;;6233841;23;8745;-45
2022/04/28 05:10:01;;;;;;;;;15.25;13.75;;;;;;;;6211433;23;8717;-44
2022/04/28 05:12:45;;;;;;;;;10.75;7.25;;;;;;;;6234387;23;8847;-45
2022/04/28 05:15:30;;;;;;;;;10.00;10.00;;;;;;;;6233630;23;8744;-45
2022/04/28 05:18:18;;;;;;;;;9.25;9.25;;;;;;;;6234221;23;8851;-44
2022/04/28 05:21:02;;;;;;;;;7.50;7.50;;;;;;;;6234857;23;11088;-45
2022/04/28 05:23:46;;;;;;;;;17.00;11.25;;;;;;;;6233654;23;8729;-45
2022/04/28 05:26:40;;;;;;;;;13.00;10.00;;;;;;;;6233024;23;9392;-45
2022/04/28 05:29:25;;;;;;;;;8.25;7.00;;;;;;;;6234235;23;8729;-44
2022/04/28 05:32:09;;;;;;;;;8.50;8.25;;;;;;;;6233850;23;8729;-45
2022/04/28 05:34:54;;;;;;;;;5.75;4.50;;;;;;;;6234118;23;8845;-45
2022/04/28 05:37:39;;;;;;;;;11.00;7.75;;;;;;;;6234789;23;8717;-45
2022/04/28 05:40:24;;;;;;;;;10.00;9.00;;;;;;;;6234600;23;8736;-44
2022/04/28 05:46:14;;;;;;;;;11.50;11.00;;;;;;;;6233630;23;8749;-44
2022/04/28 05:48:59;;;;;;;;;9.00;8.25;;;;;;;;6233815;23;8721;-45
2022/04/28 05:51:49;;;;;;;;;13.50;11.50;;;;;;;;6234623;23;8760;-44
2022/04/28 05:54:35;;;;;;;;;26.50;22.00;;;;;;;;6233621;23;8741;-45
2022/04/28 05:57:22;;;;;;;;;18.00;16.25;;;;;;;;6234361;23;8717;-45
2022/04/28 06:00:09;;;;;;;;;19.50;18.25;;;;;;;;6234144;23;8729;-44
2022/04/28 06:02:54;;;;;;;;;16.25;13.50;;;;;;;;6234115;23;8741;-44
2022/04/28 06:05:39;;;;;;;;;11.25;10.75;;;;;;;;6233885;23;8757;-45
2022/04/28 06:08:24;;;;;;;;;28.50;23.50;;;;;;;;6233967;23;8728;-44
2022/04/28 06:11:09;;;;;;;;;18.75;15.75;;;;;;;;6233190;23;8729;-45
2022/04/28 06:13:54;;;;;;;;;10.25;8.00;;;;;;;;6233878;23;8721;-44
2022/04/28 06:16:43;;;;;;;;;9.00;8.00;;;;;;;;6234269;23;8761;-45
2022/04/28 06:19:27;;;;;;;;;12.00;11.00;;;;;;;;6233742;23;8733;-46
2022/04/28 06:22:12;;;;;;;;;14.75;11.75;;;;;;;;6233765;23;8733;-44
2022/04/28 06:24:58;;;;;;;;;18.00;14.00;;;;;;;;6234484;23;8741;-44
2022/04/28 06:27:43;;;;;;;;;14.50;14.50;;;;;;;;6234328;23;8737;-45
2022/04/28 06:30:29;;;;;;;;;19.25;17.75;;;;;;;;6234167;23;9975;-45
2022/04/28 06:33:13;;;;;;;;;19.25;16.75;;;;;;;;6234022;23;8728;-45
2022/04/28 06:35:58;;;;;;;;;19.00;17.00;;;;;;;;6233319;23;9531;-45
2022/04/28 06:38:42;;;;;;;;;17.00;15.75;;;;;;;;6233610;23;8835;-44
2022/04/28 06:41:28;;;;;;;;;16.25;14.75;;;;;;;;6233567;23;8721;-45
2022/04/28 06:44:12;;;;;;;;;17.50;13.50;;;;;;;;6235377;23;8752;-45
2022/04/28 06:46:57;;;;;;;;;10.50;10.25;;;;;;;;6236066;23;8729;-45
2022/04/28 06:49:41;;;;;;;;;14.00;11.50;;;;;;;;6235865;23;9493;-46
2022/04/28 06:52:26;;;;;;;;;7.25;5.75;;;;;;;;6235554;23;8737;-45
2022/04/28 06:55:10;;;;;;;;;11.25;10.00;;;;;;;;6235576;23;8773;-45
2022/04/28 06:57:56;;;;;;;;;9.50;8.75;;;;;;;;6234765;23;8863;-46
2022/04/28 07:00:40;;;;;;;;;7.00;6.75;;;;;;;;6233665;23;8740;-45
2022/04/28 07:03:27;;;;;;;;;9.25;8.50;;;;;;;;6236102;23;8721;-46
2022/04/28 07:06:13;;;;;;;;;9.00;9.00;;;;;;;;6235478;23;9545;-46
2022/04/28 07:08:57;;;;;;;;;8.75;8.75;;;;;;;;6212970;23;8744;-45
2022/04/28 07:11:41;;;;;;;;;6.75;5.50;;;;;;;;6234730;23;8745;-45
2022/04/28 07:14:26;;;;;;;;;6.25;5.50;;;;;;;;6235489;23;9501;-46
2022/04/28 07:17:13;;;;;;;;;11.50;10.00;;;;;;;;6234784;23;8765;-46
2022/04/28 07:19:58;;;;;;;;;5.75;5.75;;;;;;;;6235035;23;8733;-48
2022/04/28 07:22:42;;;;;;;;;6.25;3.50;;;;;;;;6235348;23;8740;-47
2022/04/28 07:25:29;;;;;;;;;2.00;2.00;;;;;;;;6235181;23;8740;-44
2022/04/28 07:28:14;;;;;;;;;4.00;0.50;;;;;;;;6235076;23;8745;-49
2022/04/28 07:33:53;;;;;;;;;5.75;4.75;;;;;;;;6200349;22;8771;-43
2022/04/28 07:36:38;;;;;;;;;7.25;6.50;;;;;;;;6202746;23;8767;-45
2022/04/28 07:39:22;;;;;;;;;6.50;6.00;;;;;;;;6201759;23;8731;-45
2022/04/28 07:42:10;;;;;;;;;9.00;7.25;;;;;;;;6180721;23;8727;-43
2022/04/28 07:44:54;;;;;;;;;11.00;9.75;;;;;;;;6204254;23;8731;-47
2022/04/28 07:47:40;;;;;;;;;9.25;8.25;;;;;;;;6202685;23;8719;-46
2022/04/28 07:50:26;;;;;;;;;11.25;10.00;;;;;;;;6201974;23;8723;-49
2022/04/28 07:53:11;;;;;;;;;10.75;10.75;;;;;;;;6200800;23;8727;-48
2022/04/28 07:56:10;;;;;;;;;15.50;14.75;;;;;;;;6203975;23;8805;-47
2022/04/28 07:58:55;;;;;;;;;9.75;9.75;;;;;;;;6202444;23;9479;-48
2022/04/28 08:01:39;;;;;;;;;10.50;9.50;;;;;;;;6201231;23;8704;-49
2022/04/28 08:04:23;;;;;;;;;13.00;11.00;;;;;;;;6201780;23;8727;-45
2022/04/28 08:07:08;;;;;;;;;12.00;11.00;;;;;;;;6202456;23;9542;-45
2022/04/28 08:09:54;;;;;;;;;16.00;12.25;;;;;;;;6202497;23;8730;-44
2022/04/28 08:12:38;;;;;;;;;26.75;25.25;;;;;;;;6203960;23;8727;-45
2022/04/28 08:15:22;;;;;;;;;50.75;41.50;;;;;;;;6202551;23;8747;-45
2022/04/28 08:18:07;;;;;;;;;20.75;16.75;;;;;;;;6179758;23;8720;-46
2022/04/28 08:20:52;;;;;;;;;30.75;27.00;;;;;;;;6203479;23;8715;-47
2022/04/28 08:23:37;;;;;;;;;12.50;11.25;;;;;;;;6204646;23;8731;-49
2022/04/28 08:26:21;;;;;;;;;12.25;10.75;;;;;;;;6203440;23;8739;-45
2022/04/28 08:29:06;;;;;;;;;13.75;12.50;;;;;;;;6203219;23;8715;-46
2022/04/28 08:31:51;;;;;;;;;17.25;13.00;;;;;;;;6201965;23;9546;-47
2022/04/28 08:34:36;;;;;;;;;13.25;12.50;;;;;;;;6202940;23;8763;-46
2022/04/28 08:37:22;;;;;;;;;14.50;14.50;;;;;;;;6202908;23;8724;-47
2022/04/28 08:40:07;;;;;;;;;23.75;18.75;;;;;;;;6201925;23;8838;-47
2022/04/28 08:42:52;;;;;;;;;19.25;13.50;;;;;;;;6204065;23;8724;-44
2022/04/28 08:46:50;;;;;;;;;19.75;16.75;;;;;;;;6203825;23;8755;-48
2022/04/28 08:48:46;;;;;;;;;19.75;18.75;;;;;;;;6202221;23;8845;-52
2022/04/28 08:51:32;;;;;;;;;20.00;19.00;;;;;;;;6202581;23;8759;-49
2022/04/28 08:54:16;;;;;;;;;23.00;19.25;;;;;;;;6203085;23;8723;-48
2022/04/28 08:57:01;;;;;;;;;21.00;16.75;;;;;;;;6203013;23;8755;-48
2022/04/28 08:59:46;;;;;;;;;21.75;19.50;;;;;;;;6203534;23;8735;-46
2022/04/28 09:02:33;;;;;;;;;27.25;19.75;;;;;;;;6202214;23;8727;-48
2022/04/28 09:05:19;;;;;;;;;29.00;24.50;;;;;;;;6201788;23;8727;-46
2022/04/28 09:08:03;;;;;;;;;19.50;16.75;;;;;;;;6201148;23;8877;-47
2022/04/28 09:10:48;;;;;;;;;23.75;20.25;;;;;;;;6202309;23;8731;-48
2022/04/28 09:16:35;;;;;;;;;33.50;30.75;;;;;;;;6203522;23;8751;-46
2022/04/28 09:19:24;;;;;;;;;15.25;14.25;;;;;;;;6203234;23;8716;-46
2022/04/28 09:22:13;;;;;;;;;17.50;16.25;;;;;;;;6203330;23;8719;-47
2022/04/28 09:24:59;;;;;;;;;27.00;23.25;;;;;;;;6203087;23;8715;-46
2022/04/28 09:27:46;;;;;;;;;30.00;26.00;;;;;;;;6203328;23;8739;-48
2022/04/28 09:30:50;;;;;;;;;21.25;19.75;;;;;;;;6202818;23;8728;-46
2022/04/28 09:33:36;;;;;;;;;12.50;12.50;;;;;;;;6203597;23;8743;-45
2022/04/28 09:36:21;;;;;;;;;18.00;16.25;;;;;;;;6203035;23;8779;-50
2022/04/28 09:39:06;;;;;;;;;23.00;18.75;;;;;;;;6202854;23;8731;-45
2022/04/28 09:54:25;;;;;;;;;23.00;20.75;;;;;;;;4296426;33;51614;-49
2022/04/28 09:57:10;;;;;;;;;23.50;21.00;;;;;;;;5048774;28;51133;-47
2022/04/28 09:59:57;;;;;;;;;22.25;22.00;;;;;;;;5047983;28;51348;-46
2022/04/28 10:02:42;;;;;;;;;26.00;23.00;;;;;;;;5050785;28;51105;-45
2022/04/28 10:05:27;;;;;;;;;21.75;20.50;;;;;;;;5055605;28;51516;-44
2022/04/28 10:08:13;;;;;;;;;23.00;22.25;;;;;;;;5053938;28;51062;-47
2022/04/28 10:10:59;;;;;;;;;24.00;21.75;;;;;;;;5056521;28;51111;-49
2022/04/28 10:13:45;;;;;;;;;23.25;18.75;;;;;;;;5055885;28;51452;-46
2022/04/28 10:16:30;;;;;;;;;18.75;18.00;;;;;;;;5056018;28;51699;-48
2022/04/28 10:19:17;;;;;;;;;24.50;22.75;;;;;;;;5055918;28;51052;-47
2022/04/28 10:22:01;;;;;;;;;33.50;28.50;;;;;;;;5056132;28;51000;-49
2022/04/28 10:34:11;;;;;;;;;16.50;15.00;;;;;;;;5048275;28;51115;-45
2022/04/28 10:37:06;;;;;;;;;19.50;15.25;;;;;;;;5045712;28;51091;-47
2022/04/28 10:39:55;;;;;;;;;19.25;16.25;;;;;;;;5035224;28;51084;-45
2022/04/28 10:42:39;;;;;;;;;21.00;18.00;;;;;;;;5035673;28;51492;-45
2022/04/28 10:45:25;;;;;;;;;13.00;11.50;;;;;;;;5055347;28;51214;-44
2022/04/28 10:48:25;;;;;;;;;15.75;14.50;;;;;;;;5047594;28;51178;-46
2022/04/28 10:51:22;;;;;;;;;16.00;14.75;;;;;;;;5053498;28;51395;-46
2022/04/28 10:54:09;;;;;;;;;17.25;15.25;;;;;;;;5047342;28;51132;-47
2022/04/28 10:56:58;;;;;;;;;13.25;11.50;;;;;;;;5041764;28;51545;-46
2022/04/28 10:59:48;;;;;;;;;14.75;14.00;;;;;;;;5029911;28;51298;-43
2022/04/28 11:02:35;;;;;;;;;19.75;12.50;;;;;;;;5039388;28;51190;-44
2022/04/28 11:05:27;;;;;;;;;23.50;22.50;;;;;;;;5037412;28;51412;-46
2022/04/28 11:08:22;;;;;;;;;18.50;15.25;;;;;;;;5038072;28;51155;-45
2022/04/28 11:11:11;;;;;;;;;14.75;14.75;;;;;;;;5041423;28;51083;-42
2022/04/28 11:13:57;;;;;;;;;15.75;12.75;;;;;;;;5036473;28;51052;-44
2022/04/28 11:16:47;;;;;;;;;17.25;16.25;;;;;;;;5040883;28;51297;-47
2022/04/28 11:32:11;;;;;;;;;54.00;43.50;;;;;;;;4297567;32;51218;-43
2022/04/28 11:34:57;;;;;;;;;17.50;15.50;;;;;;;;5057380;28;51184;-42
2022/04/28 11:37:41;;;;;;;;;18.50;15.00;;;;;;;;5045938;28;51453;-43
2022/04/28 11:40:29;;;;;;;;;12.25;10.50;;;;;;;;5050848;28;51187;-42
2022/04/28 11:43:14;;;;;;;;;13.50;12.00;;;;;;;;5052989;28;51602;-42
2022/04/28 11:45:59;;;;;;;;;12.00;8.50;;;;;;;;5054943;28;51203;-44
2022/04/28 11:48:43;;;;;;;;;16.75;12.00;;;;;;;;5056996;28;51034;-45
2022/04/28 11:51:31;;;;;;;;;13.75;13.00;;;;;;;;5050237;28;51189;-44
2022/04/28 11:54:20;;;;;;;;;19.25;18.00;;;;;;;;5056511;28;51506;-45
2022/04/28 11:57:09;;;;;;;;;25.25;24.75;;;;;;;;5054539;28;51096;-44
2022/04/28 11:59:54;;;;;;;;;22.25;21.25;;;;;;;;5051376;28;51006;-43
2022/04/28 12:02:38;;;;;;;;;13.75;12.50;;;;;;;;5053956;28;51525;-43
2022/04/28 12:05:25;;;;;;;;;10.25;9.25;;;;;;;;5054446;28;51192;-42
2022/04/28 12:08:13;;;;;;;;;15.00;14.50;;;;;;;;5054246;28;51231;-41
2022/04/28 12:14:22;;;;;;;;;14.00;10.75;;;;;;;;5053749;28;51087;-43
2022/04/28 12:20:11;;;;;;;;;12.00;9.50;;;;;;;;5053036;28;51209;-46
2022/04/28 12:22:56;;;;;;;;;11.75;10.50;;;;;;;;5052871;28;51149;-42
2022/04/28 12:25:40;;;;;;;;;13.25;12.75;;;;;;;;5055716;28;51121;-44
2022/04/28 12:28:29;;;;;;;;;13.25;11.50;;;;;;;;5055326;28;51393;-46
2022/04/28 12:31:14;;;;;;;;;30.25;24.50;;;;;;;;5052417;28;51436;-45
2022/04/28 12:33:59;;;;;;;;;14.00;11.25;;;;;;;;5037528;28;51271;-41
2022/04/28 12:36:45;;;;;;;;;14.75;11.75;;;;;;;;5034019;28;51082;-43
2022/04/28 12:39:31;;;;;;;;;16.00;15.00;;;;;;;;5039573;28;51063;-42
2022/04/28 12:42:16;;;;;;;;;16.50;13.50;;;;;;;;5041868;28;51135;-45
2022/04/28 12:45:01;;;;;;;;;13.75;11.00;;;;;;;;5040288;28;51482;-44
2022/04/28 12:47:50;;;;;;;;;11.00;9.00;;;;;;;;5041363;28;51183;-45
2022/04/28 12:50:35;;;;;;;;;16.00;13.25;;;;;;;;5042061;28;51102;-44
2022/04/28 12:53:32;;;;;;;;;14.50;14.00;;;;;;;;5039794;28;51148;-45
2022/04/28 12:56:27;;;;;;;;;14.50;13.00;;;;;;;;5041986;28;51284;-43
2022/04/28 12:59:16;;;;;;;;;14.50;12.00;;;;;;;;5041602;28;51165;-42
2022/04/28 13:02:00;;;;;;;;;16.75;14.00;;;;;;;;5038330;28;51100;-43
2022/04/28 13:04:45;;;;;;;;;23.00;20.50;;;;;;;;5041710;28;51083;-42
2022/04/28 13:07:29;;;;;;;;;33.50;31.00;;;;;;;;5041140;28;51466;-43
2022/04/28 13:10:15;;;;;;;;;16.50;15.50;;;;;;;;5041084;28;51194;-44
2022/04/28 13:12:59;;;;;;;;;7.50;7.00;;;;;;;;5039984;28;51109;-46
2022/04/28 13:15:44;;;;;;;;;10.75;8.00;;;;;;;;5039642;28;51121;-45
2022/04/28 13:18:28;;;;;;;;;10.00;9.50;;;;;;;;5033602;28;51187;-43
2022/04/28 13:21:13;;;;;;;;;22.00;19.50;;;;;;;;5037832;28;51044;-43
2022/04/28 13:23:57;;;;;;;;;33.50;29.50;;;;;;;;5035819;28;51126;-44
2022/04/28 13:26:42;;;;;;;;;46.00;37.00;;;;;;;;5040463;28;51132;-44
2022/04/28 13:29:27;;;;;;;;;22.00;22.00;;;;;;;;5031677;28;51193;-43
2022/04/28 13:32:12;;;;;;;;;13.75;10.75;;;;;;;;5033162;28;51571;-43
2022/04/28 13:34:56;;;;;;;;;11.25;9.00;;;;;;;;5038993;28;51183;-46
2022/04/28 13:37:41;;;;;;;;;10.00;10.00;;;;;;;;5036459;28;51185;-47
2022/04/28 13:40:25;;;;;;;;;11.25;8.00;;;;;;;;5040865;28;51104;-44
2022/04/28 13:43:10;;;;;;;;;9.25;7.50;;;;;;;;5039463;28;51293;-45
2022/04/28 13:45:55;;;;;;;;;8.00;8.00;;;;;;;;5036674;28;51298;-46
2022/04/28 13:48:40;;;;;;;;;11.25;8.25;;;;;;;;5038778;28;51411;-47
2022/04/28 13:51:24;;;;;;;;;9.00;9.00;;;;;;;;5039488;28;51532;-44
2022/04/28 13:54:09;;;;;;;;;7.25;7.00;;;;;;;;5040947;28;51072;-45
2022/04/28 13:56:53;;;;;;;;;12.50;7.75;;;;;;;;5039024;28;51540;-47
2022/04/28 13:59:38;;;;;;;;;8.50;6.75;;;;;;;;5039494;28;51172;-45
2022/04/28 14:02:22;;;;;;;;;17.50;14.25;;;;;;;;5035960;28;51229;-46
2022/04/28 14:05:07;;;;;;;;;13.00;10.50;;;;;;;;5039152;28;51033;-45
2022/04/28 14:07:52;;;;;;;;;8.25;8.25;;;;;;;;5040106;28;51342;-45
2022/04/28 14:10:36;;;;;;;;;9.75;9.00;;;;;;;;5037245;28;51099;-43
2022/04/28 14:13:21;;;;;;;;;8.25;7.25;;;;;;;;5040409;28;51376;-43
2022/04/28 14:16:05;;;;;;;;;10.00;8.75;;;;;;;;5039482;28;51109;-44
2022/04/28 14:18:50;;;;;;;;;8.50;8.00;;;;;;;;5038871;28;51134;-43
2022/04/28 14:21:35;;;;;;;;;11.00;9.00;;;;;;;;5035547;28;51530;-45
2022/04/28 14:24:20;;;;;;;;;12.00;9.25;;;;;;;;5038557;28;51220;-45
2022/04/28 14:27:04;;;;;;;;;17.25;14.75;;;;;;;;5039730;28;51248;-45
2022/04/28 14:29:49;;;;;;;;;14.25;9.00;;;;;;;;5038515;28;51262;-43
2022/04/28 14:32:33;;;;;;;;;9.25;6.50;;;;;;;;5034335;28;51515;-44
2022/04/28 14:35:19;;;;;;;;;10.50;6.50;;;;;;;;5035951;28;51065;-44
2022/04/28 14:38:03;;;;;;;;;8.25;6.75;;;;;;;;5038385;28;51534;-42
2022/04/28 14:40:48;;;;;;;;;14.00;11.75;;;;;;;;5039424;28;50995;-45
2022/04/28 14:43:32;;;;;;;;;10.25;8.50;;;;;;;;5040226;28;51114;-48
2022/04/28 14:46:17;;;;;;;;;13.50;9.25;;;;;;;;5038590;28;51420;-46
2022/04/28 14:52:26;;;;;;;;;6.75;6.75;;;;;;;;5037680;28;51128;-44
2022/04/28 14:55:10;;;;;;;;;8.25;6.00;;;;;;;;5041795;28;51206;-43
2022/04/28 14:58:06;;;;;;;;;7.00;7.00;;;;;;;;5037897;28;51212;-44
2022/04/28 15:00:53;;;;;;;;;10.75;6.75;;;;;;;;5038234;28;51301;-45
2022/04/28 15:03:38;;;;;;;;;9.00;7.00;;;;;;;;5037948;28;51358;-45
2022/04/28 15:06:22;;;;;;;;;7.00;6.00;;;;;;;;5038878;28;51068;-45
2022/04/28 15:09:07;;;;;;;;;10.00;6.00;;;;;;;;5039587;28;51156;-42
2022/04/28 15:11:53;;;;;;;;;9.75;6.50;;;;;;;;5038742;28;51128;-44
2022/04/28 15:14:38;;;;;;;;;10.00;6.50;;;;;;;;5036695;28;51184;-43
2022/04/28 15:17:22;;;;;;;;;15.25;11.50;;;;;;;;5039779;28;51192;-46
2022/04/28 15:20:08;;;;;;;;;4.25;4.25;;;;;;;;5039681;28;51246;-43
2022/04/28 15:22:52;;;;;;;;;10.75;7.75;;;;;;;;5038162;28;51187;-45
2022/04/28 15:25:40;;;;;;;;;10.50;9.00;;;;;;;;5034957;28;51139;-44
2022/04/28 15:28:24;;;;;;;;;5.25;5.25;;;;;;;;5036239;28;51079;-43
2022/04/28 15:31:09;;;;;;;;;6.25;5.75;;;;;;;;5035191;28;51257;-45
2022/04/28 15:33:53;;;;;;;;;6.50;2.75;;;;;;;;5036673;28;51255;-44
2022/04/28 15:36:38;;;;;;;;;11.00;6.00;;;;;;;;5036540;28;51338;-44
2022/04/28 15:39:22;;;;;;;;;8.50;8.50;;;;;;;;5036056;28;51484;-43
2022/04/28 15:42:07;;;;;;;;;7.50;5.25;;;;;;;;5037078;28;51406;-45
2022/04/28 15:44:51;;;;;;;;;7.00;7.00;;;;;;;;5038917;28;51125;-44
2022/04/28 15:47:36;;;;;;;;;7.75;6.75;;;;;;;;5036712;28;51096;-45
2022/04/28 15:50:21;;;;;;;;;9.00;8.25;;;;;;;;5036785;28;51240;-47
2022/04/28 15:53:05;;;;;;;;;8.50;7.00;;;;;;;;5038416;28;51422;-44
2022/04/28 15:55:49;;;;;;;;;12.00;8.50;;;;;;;;5036795;28;51148;-45
2022/04/28 15:58:34;;;;;;;;;7.50;7.50;;;;;;;;5038714;28;51084;-47
2022/04/28 16:01:19;;;;;;;;;9.25;7.00;;;;;;;;5037050;28;51402;-45
2022/04/28 16:04:03;;;;;;;;;13.00;10.00;;;;;;;;5040515;28;51504;-45
2022/04/28 16:06:48;;;;;;;;;11.00;10.00;;;;;;;;5037383;28;51022;-45
2022/04/28 16:09:32;;;;;;;;;8.75;8.75;;;;;;;;5040879;28;51105;-45
2022/04/28 16:12:17;;;;;;;;;8.25;7.50;;;;;;;;5038403;28;51161;-45
2022/04/28 16:15:01;;;;;;;;;5.25;5.25;;;;;;;;5030394;28;51396;-44
2022/04/28 16:17:46;;;;;;;;;8.00;6.25;;;;;;;;5035141;28;51114;-45
2022/04/28 16:20:31;;;;;;;;;9.25;9.25;;;;;;;;5036713;28;51261;-44
2022/04/28 16:23:16;;;;;;;;;10.75;8.00;;;;;;;;5035718;28;51245;-44
2022/04/28 16:26:01;;;;;;;;;11.25;10.00;;;;;;;;5038577;28;51241;-44
2022/04/28 16:28:46;;;;;;;;;12.75;10.00;;;;;;;;5041019;28;51114;-45
2022/04/28 16:31:30;;;;;;;;;11.00;9.00;;;;;;;;5038604;28;51288;-47
2022/04/28 16:34:17;;;;;;;;;14.25;8.75;;;;;;;;5034435;28;51156;-44
2022/04/28 16:37:01;;;;;;;;;8.50;7.25;;;;;;;;5041422;28;51553;-45
2022/04/28 16:39:45;;;;;;;;;17.00;13.00;;;;;;;;5041956;28;52217;-45
2022/04/28 16:42:30;;;;;;;;;10.75;7.25;;;;;;;;5042017;28;51118;-44
2022/04/28 16:45:15;;;;;;;;;10.00;9.50;;;;;;;;5041239;28;50980;-46
2022/04/28 16:47:59;;;;;;;;;13.00;11.50;;;;;;;;5041648;28;51204;-46
2022/04/28 16:50:43;;;;;;;;;13.50;11.50;;;;;;;;5031264;28;51241;-43
2022/04/28 16:53:29;;;;;;;;;11.75;9.00;;;;;;;;5034300;28;51750;-45
2022/04/28 16:56:14;;;;;;;;;12.00;8.25;;;;;;;;5038512;28;51219;-43
2022/04/28 16:59:01;;;;;;;;;16.25;15.00;;;;;;;;5041066;28;51096;-44
2022/04/28 17:01:45;;;;;;;;;14.50;9.75;;;;;;;;5040981;28;51525;-43
2022/04/28 17:04:31;;;;;;;;;12.00;10.50;;;;;;;;5043072;28;51172;-44
2022/04/28 17:07:16;;;;;;;;;14.25;12.25;;;;;;;;5040661;28;51414;-43
2022/04/28 17:10:00;;;;;;;;;17.00;14.25;;;;;;;;5040859;28;51184;-44
2022/04/28 17:12:45;;;;;;;;;17.50;13.25;;;;;;;;5037799;28;51288;-45
2022/04/28 17:15:30;;;;;;;;;21.00;15.50;;;;;;;;5040380;28;51180;-46
2022/04/28 17:18:14;;;;;;;;;18.50;16.50;;;;;;;;5040442;28;51299;-45
2022/04/28 17:20:59;;;;;;;;;21.00;19.00;;;;;;;;5037912;28;51156;-44
2022/04/28 17:23:43;;;;;;;;;17.25;17.25;;;;;;;;5031172;28;51500;-44
2022/04/28 17:26:28;;;;;;;;;16.00;12.25;;;;;;;;5031534;28;51216;-45
2022/04/28 17:29:13;;;;;;;;;18.00;14.50;;;;;;;;5037406;28;51174;-44
2022/04/28 17:31:57;;;;;;;;;11.50;9.75;;;;;;;;5034865;28;51171;-45
2022/04/28 17:34:44;;;;;;;;;16.75;14.75;;;;;;;;5033502;28;51639;-45
2022/04/28 17:37:28;;;;;;;;;11.25;9.75;;;;;;;;5039767;28;51135;-46
2022/04/28 17:40:13;;;;;;;;;12.25;10.50;;;;;;;;5039260;28;51108;-44
2022/04/28 17:42:58;;;;;;;;;19.75;15.75;;;;;;;;5038289;28;51509;-47
2022/04/28 17:45:42;;;;;;;;;19.00;14.75;;;;;;;;5033844;28;51150;-46
2022/04/28 17:48:27;;;;;;;;;23.50;20.50;;;;;;;;5033117;28;51159;-43
2022/04/28 17:51:12;;;;;;;;;16.25;14.50;;;;;;;;5031115;28;51343;-43
2022/04/28 17:53:56;;;;;;;;;15.25;12.25;;;;;;;;5031408;28;51284;-42
2022/04/28 17:59:53;;;;;;;;;17.75;14.50;;;;;;;;5034073;28;51314;-44
2022/04/28 18:02:37;;;;;;;;;39.25;32.25;;;;;;;;5031652;28;51224;-46
2022/04/28 18:05:21;;;;;;;;;30.50;26.75;;;;;;;;5029642;28;51132;-45
2022/04/28 18:08:06;;;;;;;;;32.75;29.50;;;;;;;;5035566;28;51550;-43
2022/04/28 18:10:50;;;;;;;;;47.75;39.00;;;;;;;;5034785;28;51193;-45
2022/04/28 18:13:35;;;;;;;;;35.25;29.50;;;;;;;;5040366;28;51274;-45
2022/04/28 18:16:20;;;;;;;;;40.50;32.00;;;;;;;;5033026;28;51440;-42
2022/04/28 18:19:07;;;;;;;;;37.25;30.00;;;;;;;;5034731;28;51229;-45
2022/04/28 18:21:53;;;;;;;;;27.00;25.50;;;;;;;;5034511;28;51191;-44
2022/04/28 18:24:37;;;;;;;;;45.00;33.25;;;;;;;;5040608;28;51155;-44
2022/04/28 18:27:21;;;;;;;;;39.00;31.25;;;;;;;;5032857;28;51178;-44
2022/04/28 18:30:07;;;;;;;;;34.25;30.00;;;;;;;;5045028;28;51095;-44
2022/04/28 18:32:51;;;;;;;;;37.50;32.25;;;;;;;;5024146;28;51116;-43
2022/04/28 18:44:49;;;;;;;;;37.00;29.75;;;;;;;;5033077;28;51130;-45
2022/04/28 18:47:33;;;;;;;;;47.50;37.25;;;;;;;;5023047;28;51804;-44
2022/04/28 18:50:20;;;;;;;;;29.75;25.75;;;;;;;;5038989;28;51161;-44
2022/04/28 18:53:07;;;;;;;;;53.25;41.00;;;;;;;;5036430;28;51122;-43
2022/04/28 18:55:53;;;;;;;;;38.25;30.25;;;;;;;;5038398;28;51134;-43
2022/04/28 18:58:37;;;;;;;;;31.25;26.75;;;;;;;;5037547;28;51182;-45
2022/04/28 19:01:25;;;;;;;;;37.75;31.25;;;;;;;;5038729;28;51173;-42
2022/04/28 19:04:11;;;;;;;;;39.50;30.75;;;;;;;;5036744;28;51152;-46
2022/04/28 19:06:56;;;;;;;;;36.25;30.75;;;;;;;;5036485;28;51290;-43